Time;durP1;ratioP1;P1;durP2;ratioP2;P2;SDS_P1;SDS_P2;PMS_P1;PMS_P2;Temp;Humidity;BMP_temperature;BMP_pressure;BME280_temperature;BME280_humidity;BME280_pressure;Samples;Min_cycle;Max_cycle;Signal;HPM_P1;HPM_P2
2022/06/13 00:02:09;;;;;;;6.63;4.03;;;;;;;21.10;92.08;99541.53;5039331;28;20055;-73
2022/06/13 00:04:35;;;;;;;9.60;4.05;;;;;;;21.02;91.78;99543.53;5040564;28;20033;-73
2022/06/13 00:07:01;;;;;;;7.68;3.75;;;;;;;21.11;90.99;99553.94;5039440;28;20041;-72
2022/06/13 00:09:27;;;;;;;6.18;3.72;;;;;;;21.03;90.91;99553.25;5038660;28;20032;-72
2022/06/13 00:11:52;;;;;;;10.52;3.75;;;;;;;21.00;91.24;99545.63;5038304;28;20037;-72
2022/06/13 00:14:18;;;;;;;7.97;3.70;;;;;;;21.02;91.30;99548.09;5020995;28;20033;-73
2022/06/13 00:16:43;;;;;;;11.38;3.83;;;;;;;20.99;91.42;99535.91;5037164;28;20041;-73
2022/06/13 00:19:09;;;;;;;9.27;3.25;;;;;;;21.00;91.15;99540.25;5038650;28;20032;-73
2022/06/13 00:21:36;;;;;;;6.38;3.97;;;;;;;20.98;91.07;99536.97;5038788;28;20230;-73
2022/06/13 00:24:04;;;;;;;5.97;3.83;;;;;;;20.99;90.97;99525.16;5038201;28;20036;-73
2022/06/13 00:26:32;;;;;;;12.07;4.40;;;;;;;21.04;90.95;99527.97;5035565;28;20059;-73
2022/06/13 00:28:58;;;;;;;8.90;3.50;;;;;;;21.00;90.35;99526.78;5038856;28;20097;-73
2022/06/13 00:31:24;;;;;;;5.97;4.30;;;;;;;21.15;90.06;99530.88;5040833;28;20033;-73
2022/06/13 00:33:50;;;;;;;8.50;3.67;;;;;;;21.10;89.11;99538.84;5039207;28;20039;-73
2022/06/13 00:36:16;;;;;;;6.15;3.70;;;;;;;21.15;89.23;99531.69;5038464;28;20343;-72
2022/06/13 00:38:42;;;;;;;8.68;3.72;;;;;;;21.01;88.94;99531.13;5037826;28;20329;-72
2022/06/13 00:41:09;;;;;;;8.27;4.25;;;;;;;21.05;88.98;99536.84;5055867;28;20342;-73
2022/06/13 00:43:37;;;;;;;6.97;3.85;;;;;;;21.02;89.13;99554.28;5058855;28;20126;-73
2022/06/13 00:46:14;;;;;;;7.55;3.67;;;;;;;20.98;89.60;99553.13;5058101;28;20342;-73
2022/06/13 00:48:39;;;;;;;5.75;3.60;;;;;;;20.89;90.18;99556.41;5056518;28;20052;-73
2022/06/13 00:51:05;;;;;;;6.13;3.53;;;;;;;20.97;89.50;99554.19;5041361;28;20029;-73
2022/06/13 00:53:34;;;;;;;4.68;3.35;;;;;;;21.03;89.08;99553.25;5058603;28;21480;-73
2022/06/13 00:56:06;;;;;;;10.50;4.00;;;;;;;20.92;89.36;99546.00;5058302;28;20033;-73
2022/06/13 00:58:38;;;;;;;4.88;4.13;;;;;;;21.06;89.17;99540.38;5059015;28;20040;-72
2022/06/13 01:01:04;;;;;;;5.60;3.92;;;;;;;21.18;87.88;99543.88;5058568;28;20047;-72
2022/06/13 01:03:32;;;;;;;4.68;3.88;;;;;;;21.23;88.00;99538.63;5057628;28;20040;-73
2022/06/13 01:06:01;;;;;;;9.02;3.55;;;;;;;21.25;87.82;99537.34;5055135;28;20222;-73
2022/06/13 01:08:29;;;;;;;10.73;4.05;;;;;;;21.26;87.38;99540.84;5058926;28;20083;-73
2022/06/13 01:11:18;;;;;;;8.27;4.18;;;;;;;21.24;88.05;99551.03;5060556;28;20036;-72
2022/06/13 01:14:10;;;;;;;10.90;4.10;;;;;;;21.26;87.88;99546.22;5059426;28;20074;-73
2022/06/13 01:17:11;;;;;;;7.05;3.97;;;;;;;21.13;88.95;99559.91;5056215;28;20102;-73
2022/06/13 01:20:11;;;;;;;10.23;4.10;;;;;;;21.19;89.44;99548.19;5043255;28;20453;-73
2022/06/13 01:23:20;;;;;;;5.10;3.55;;;;;;;20.92;89.90;99550.56;5056014;28;20029;-72
2022/06/13 01:26:01;;;;;;;6.93;3.42;;;;;;;20.81;90.53;99552.19;4958483;29;20105;-72
2022/06/13 01:29:04;;;;;;;5.63;3.70;;;;;;;20.89;90.24;99551.84;5036655;28;20373;-72
2022/06/13 01:31:41;;;;;;;11.27;3.88;;;;;;;20.85;89.60;99547.97;5053792;28;20053;-72
2022/06/13 01:34:15;;;;;;;7.00;3.65;;;;;;;20.85;90.37;99553.34;5057842;28;20036;-73
2022/06/13 01:37:06;;;;;;;5.72;3.50;;;;;;;20.95;90.09;99561.66;5057651;28;20028;-72
2022/06/13 01:39:59;;;;;;;6.53;3.80;;;;;;;20.91;90.52;99551.59;5058595;28;20052;-73
2022/06/13 01:42:37;;;;;;;8.23;3.67;;;;;;;20.85;90.91;99550.66;5058253;28;20033;-73
2022/06/13 01:45:24;;;;;;;6.85;3.60;;;;;;;20.67;91.09;99534.59;5058404;28;20061;-73
2022/06/13 01:47:59;;;;;;;6.72;3.65;;;;;;;20.73;91.94;99544.44;5055590;28;20040;-73
2022/06/13 01:50:44;;;;;;;5.47;3.63;;;;;;;20.77;91.27;99544.78;5058548;28;20033;-73
2022/06/13 01:53:36;;;;;;;9.60;3.75;;;;;;;20.79;91.79;99553.44;5059141;28;20042;-73
2022/06/13 01:56:08;;;;;;;8.32;3.80;;;;;;;20.60;91.91;99548.16;5059861;28;20283;-73
2022/06/13 01:58:49;;;;;;;7.20;4.03;;;;;;;20.65;92.39;99544.78;5063038;28;20351;-73
2022/06/13 02:01:19;;;;;;;5.60;4.03;;;;;;;20.65;91.40;99545.59;5063594;28;20029;-72
2022/06/13 02:03:50;;;;;;;6.88;3.60;;;;;;;20.72;91.06;99546.31;5043647;28;20025;-73
2022/06/13 02:06:40;;;;;;;6.40;3.40;;;;;;;20.65;91.20;99540.22;5061575;28;20075;-72
2022/06/13 02:09:11;;;;;;;4.72;3.38;;;;;;;20.60;91.45;99542.78;5059243;28;20032;-73
2022/06/13 02:11:46;;;;;;;9.13;3.67;;;;;;;20.67;90.63;99530.03;5062870;28;20051;-72
2022/06/13 02:14:23;;;;;;;9.23;3.65;;;;;;;20.79;90.17;99535.44;5063555;28;20112;-72
2022/06/13 02:16:57;;;;;;;4.53;3.47;;;;;;;20.70;89.78;99536.81;5062879;28;20037;-72
2022/06/13 02:19:52;;;;;;;7.60;3.80;;;;;;;20.77;90.14;99536.72;5061523;28;20031;-73
2022/06/13 02:22:26;;;;;;;6.65;3.90;;;;;;;20.41;88.84;99487.44;5056425;28;20048;-73
2022/06/13 02:25:04;;;;;;;6.53;3.58;;;;;;;20.69;89.05;99541.38;5043717;28;20021;-72
2022/06/13 02:27:33;;;;;;;7.63;3.83;;;;;;;20.66;89.40;99549.09;5061368;28;20120;-72
2022/06/13 02:30:03;;;;;;;6.43;3.90;;;;;;;20.53;89.97;99530.50;5060979;28;20036;-73
2022/06/13 02:32:39;;;;;;;10.00;4.10;;;;;;;20.60;90.11;99542.78;5058254;28;20053;-73
2022/06/13 02:35:12;;;;;;;7.15;3.97;;;;;;;20.63;90.21;99536.13;5061889;28;20378;-73
2022/06/13 02:37:42;;;;;;;4.53;3.72;;;;;;;20.70;89.79;99539.50;5061783;28;20037;-73
2022/06/13 02:40:15;;;;;;;8.98;4.57;;;;;;;20.68;90.17;99541.63;5060395;28;20041;-73
2022/06/13 02:43:03;;;;;;;8.02;4.80;;;;;;;20.70;90.06;99550.28;5060425;28;20060;-73
2022/06/13 02:45:38;;;;;;;9.90;5.28;;;;;;;20.53;90.68;99546.63;5060309;28;20041;-72
2022/06/13 02:48:03;;;;;;;9.10;4.82;;;;;;;20.53;91.06;99547.44;5061276;28;20024;-73
2022/06/13 02:50:47;;;;;;;8.02;4.10;;;;;;;20.60;90.55;99550.03;5062113;28;20051;-72
2022/06/13 02:53:19;;;;;;;9.38;4.10;;;;;;;20.53;91.32;99554.69;5059840;28;20243;-73
2022/06/13 02:56:20;;;;;;;11.90;4.30;;;;;;;20.61;90.72;99548.97;5060433;28;20033;-73
2022/06/13 02:59:29;;;;;;;8.38;4.60;;;;;;;20.35;92.33;99548.31;5060736;28;20066;-73
2022/06/13 03:02:37;;;;;;;9.30;4.60;;;;;;;20.29;92.63;99549.25;5246847;22;20065;-67
2022/06/13 03:05:46;;;;;;;12.13;5.03;;;;;;;20.41;92.15;99551.97;5035618;28;20033;-67
2022/06/13 03:08:30;;;;;;;10.30;4.93;;;;;;;20.32;92.22;99551.47;4980746;28;20054;-67
2022/06/13 03:11:33;;;;;;;15.60;5.05;;;;;;;20.19;93.09;99551.66;5036719;28;20064;-67
2022/06/13 03:14:14;;;;;;;8.65;4.82;;;;;;;20.06;93.40;99544.59;5038599;28;20238;-67
2022/06/13 03:16:43;;;;;;;9.18;4.78;;;;;;;20.00;93.93;99536.63;5041432;28;20314;-67
2022/06/13 03:19:38;;;;;;;8.32;4.82;;;;;;;20.11;93.28;99538.53;5041784;28;20032;-67
2022/06/13 03:22:15;;;;;;;;;;;;;;;20.07;93.12;99546.25;5005327;28;20053;-67
2022/06/13 03:25:03;;;;;;;6.97;3.95;;;;;;;19.97;93.58;99547.84;5033963;28;20204;-67
2022/06/13 03:27:40;;;;;;;9.07;4.20;;;;;;;20.03;93.21;99549.63;5033884;28;20046;-67
2022/06/13 03:30:13;;;;;;;6.60;3.58;;;;;;;19.98;92.78;99549.47;5030690;28;20060;-67
2022/06/13 03:35:39;;;;;;;10.00;3.90;;;;;;;19.95;93.07;99563.38;5007989;28;20054;-68
2022/06/13 03:38:09;;;;;;;8.15;4.15;;;;;;;19.89;93.39;99543.59;5041331;28;20318;-67
2022/06/13 03:40:40;;;;;;;5.05;3.30;;;;;;;20.06;92.57;99557.22;5041978;28;20036;-67
2022/06/13 03:43:18;;;;;;;10.23;4.10;;;;;;;19.99;92.35;99546.56;5029882;28;20026;-67
2022/06/13 03:45:49;;;;;;;9.82;4.13;;;;;;;20.16;91.75;99546.75;5030516;28;20072;-67
2022/06/13 03:48:21;;;;;;;6.53;4.05;;;;;;;19.99;92.24;99546.56;5029688;28;20022;-67
2022/06/13 03:51:00;;;;;;;5.53;3.50;;;;;;;20.07;92.21;99558.88;5037853;28;20041;-67
2022/06/13 03:53:42;;;;;;;4.95;3.45;;;;;;;20.07;91.85;99557.00;5029773;28;20227;-67
2022/06/13 03:56:30;;;;;;;4.45;3.45;;;;;;;20.12;91.89;99558.19;5026704;28;20095;-67
2022/06/13 03:59:03;;;;;;;5.50;3.50;;;;;;;20.15;91.36;99569.31;5023728;28;20029;-67
2022/06/13 04:01:38;;;;;;;6.45;4.15;;;;;;;20.35;90.23;99569.81;5027113;28;20037;-67
2022/06/13 04:04:04;;;;;;;11.00;4.22;;;;;;;20.41;89.28;99576.19;5052864;28;20044;-67
2022/06/13 04:06:32;;;;;;;10.95;4.10;;;;;;;20.48;89.38;99573.41;5060338;28;20048;-67
2022/06/13 04:09:01;;;;;;;10.00;4.03;;;;;;;20.37;90.19;99574.97;5059207;28;20139;-67
2022/06/13 04:11:48;;;;;;;6.25;3.78;;;;;;;20.27;90.20;99577.41;5061288;28;20045;-67
2022/06/13 04:14:33;;;;;;;6.45;4.18;;;;;;;20.42;90.23;99575.13;5058201;28;20025;-67
2022/06/13 04:16:58;;;;;;;10.07;4.20;;;;;;;20.42;89.97;99579.69;5056548;28;20415;-69
2022/06/13 04:19:30;;;;;;;8.82;3.92;;;;;;;20.44;89.67;99573.03;5056832;28;20017;-67
2022/06/13 04:22:14;;;;;;;8.48;4.15;;;;;;;20.37;90.67;99566.91;5057949;28;20041;-67
2022/06/13 04:24:42;;;;;;;6.78;4.20;;;;;;;20.51;90.51;99570.25;5058330;28;20055;-67
2022/06/13 04:27:21;;;;;;;9.63;4.10;;;;;;;20.48;90.51;99573.41;5056955;28;20044;-67
2022/06/13 04:29:51;;;;;;;6.65;4.47;;;;;;;20.68;89.72;99571.22;5056633;28;20326;-67
2022/06/13 04:32:23;;;;;;;6.82;4.30;;;;;;;20.87;89.25;99567.41;5056516;28;20033;-67
2022/06/13 04:34:51;;;;;;;9.50;4.70;;;;;;;21.29;87.88;99568.13;5053770;28;20035;-67
2022/06/13 04:37:21;;;;;;;8.13;5.10;;;;;;;21.68;86.62;99584.56;5039792;28;20055;-67
2022/06/13 04:39:50;;;;;;;7.50;4.15;;;;;;;22.35;83.70;99582.13;5056503;28;20037;-68
2022/06/13 04:42:18;;;;;;;8.38;4.57;;;;;;;22.79;81.49;99580.47;5057533;28;20029;-68
2022/06/13 04:44:45;;;;;;;7.97;3.97;;;;;;;23.15;79.01;99589.16;5056378;28;20101;-68
2022/06/13 04:47:17;;;;;;;6.82;3.67;;;;;;;23.29;79.48;99584.22;5057359;28;20037;-68
2022/06/13 04:49:53;;;;;;;7.82;4.03;;;;;;;23.72;77.26;99586.19;5057827;28;20356;-68
2022/06/13 04:52:25;;;;;;;8.15;3.67;;;;;;;23.84;75.81;99590.38;5057489;28;20317;-67
2022/06/13 04:55:11;;;;;;;8.02;3.97;;;;;;;23.74;76.33;99595.69;5056594;28;20052;-67
2022/06/13 04:57:36;;;;;;;5.32;4.10;;;;;;;24.01;75.26;99592.22;5057683;28;20029;-68
2022/06/13 05:00:07;;;;;;;8.32;3.55;;;;;;;24.00;74.04;99586.00;5056751;28;20040;-68
2022/06/13 05:02:43;;;;;;;8.00;3.67;;;;;;;24.00;74.48;99590.59;5053353;28;20056;-67
2022/06/13 05:05:33;;;;;;;4.63;3.38;;;;;;;24.10;74.13;99594.22;5057044;28;20033;-68
2022/06/13 05:07:59;;;;;;;7.30;3.47;;;;;;;24.25;73.35;99581.94;5057506;28;20025;-68
2022/06/13 05:10:31;;;;;;;4.00;3.05;;;;;;;24.54;72.52;99580.63;5056916;28;20032;-68
2022/06/13 05:12:57;;;;;;;8.65;3.55;;;;;;;24.51;71.97;99576.53;5056589;28;20388;-68
2022/06/13 05:15:29;;;;;;;7.82;3.40;;;;;;;24.61;72.49;99569.56;5057942;28;20032;-68
2022/06/13 05:17:55;;;;;;;5.55;3.17;;;;;;;25.17;70.63;99576.28;5055954;28;20209;-68
2022/06/13 05:20:32;;;;;;;8.35;3.60;;;;;;;25.24;69.68;99582.28;5058488;28;20036;-67
2022/06/13 05:23:28;;;;;;;6.28;3.65;;;;;;;25.37;68.96;99581.81;5060443;28;20092;-68
2022/06/13 05:25:59;;;;;;;7.30;3.28;;;;;;;25.57;69.37;99570.25;5058238;28;20048;-68
2022/06/13 05:28:30;;;;;;;5.47;3.25;;;;;;;25.84;68.09;99578.25;5060961;28;20211;-68
2022/06/13 05:30:59;;;;;;;10.13;3.60;;;;;;;26.15;67.93;99571.06;5061088;28;20052;-68
2022/06/13 05:33:27;;;;;;;8.27;3.15;;;;;;;26.64;66.43;99568.69;5059773;28;20036;-68
2022/06/13 05:35:56;;;;;;;8.55;3.85;;;;;;;26.68;65.35;99564.34;5061025;28;20045;-68
2022/06/13 05:38:41;;;;;;;9.30;3.63;;;;;;;26.69;64.54;99571.41;5060363;28;20024;-68
2022/06/13 05:41:07;;;;;;;10.02;4.10;;;;;;;25.90;66.52;99570.94;5059627;28;20088;-68
2022/06/13 05:43:32;;;;;;;10.68;4.70;;;;;;;25.69;67.47;99561.94;5060592;28;20040;-68
2022/06/13 05:45:58;;;;;;;6.68;5.10;;;;;;;25.89;66.73;99563.91;5060643;28;20036;-68
2022/06/13 05:48:24;;;;;;;6.78;3.70;;;;;;;25.68;67.43;99571.16;5059951;28;20032;-68
2022/06/13 05:50:50;;;;;;;8.57;4.18;;;;;;;25.85;67.84;99565.50;5061128;28;20036;-68
2022/06/13 05:53:20;;;;;;;6.55;3.90;;;;;;;26.07;66.32;99569.69;5059714;28;20040;-68
2022/06/13 05:55:46;;;;;;;8.32;3.53;;;;;;;26.23;65.37;99561.56;5059696;28;20043;-67
2022/06/13 05:58:13;;;;;;;6.32;3.60;;;;;;;26.82;64.79;99566.50;5060872;28;20257;-68
2022/06/13 06:00:45;;;;;;;7.93;3.97;;;;;;;26.73;63.44;99569.78;5042195;28;20041;-68
2022/06/13 06:03:10;;;;;;;5.18;3.55;;;;;;;26.96;62.23;99559.44;5059135;28;20044;-68
2022/06/13 06:05:38;;;;;;;4.82;3.70;;;;;;;27.41;62.04;99571.34;5060814;28;20052;-68
2022/06/13 06:08:04;;;;;;;6.43;3.15;;;;;;;27.44;60.73;99574.31;5059385;28;20368;-68
2022/06/13 06:10:33;;;;;;;9.10;3.75;;;;;;;27.46;60.86;99569.44;5059509;28;20041;-68
2022/06/13 06:12:59;;;;;;;6.82;3.55;;;;;;;27.42;61.04;99571.06;5060151;28;20104;-68
2022/06/13 06:15:25;;;;;;;7.85;3.45;;;;;;;27.89;61.80;99562.47;5060264;28;20048;-68
2022/06/13 06:17:50;;;;;;;6.47;3.25;;;;;;;28.30;59.14;99567.72;5063351;28;20028;-68
2022/06/13 06:20:21;;;;;;;6.22;3.50;;;;;;;28.55;58.41;99558.56;5061587;28;20374;-68
2022/06/13 06:22:46;;;;;;;6.35;3.22;;;;;;;28.97;57.55;99563.38;5059333;28;20057;-68
2022/06/13 06:25:13;;;;;;;5.75;2.97;;;;;;;28.88;56.91;99565.94;5059219;28;20036;-68
2022/06/13 06:27:38;;;;;;;7.63;3.30;;;;;;;28.84;56.04;99561.34;5060022;28;20100;-68
2022/06/13 06:30:05;;;;;;;7.13;3.10;;;;;;;29.00;56.71;99565.53;5045412;28;20345;-68
2022/06/13 06:32:30;;;;;;;13.48;3.22;;;;;;;29.22;56.81;99567.81;5062330;28;20082;-68
2022/06/13 06:34:55;;;;;;;5.50;3.20;;;;;;;29.45;56.27;99574.41;5063453;28;20029;-68
2022/06/13 06:37:21;;;;;;;9.60;3.25;;;;;;;29.77;56.48;99565.53;5061012;28;20336;-68
2022/06/13 06:39:47;;;;;;;9.95;3.00;;;;;;;30.07;54.39;99565.16;5058614;28;20028;-68
2022/06/13 06:42:13;;;;;;;4.22;2.92;;;;;;;29.83;54.55;99572.56;5059150;28;20334;-69
2022/06/13 06:44:38;;;;;;;5.28;3.35;;;;;;;29.04;55.25;99566.59;5059367;28;20035;-68
2022/06/13 06:47:06;;;;;;;14.48;4.20;;;;;;;28.67;56.70;99567.16;5058587;28;20075;-68
2022/06/13 06:49:34;;;;;;;7.03;3.53;;;;;;;28.72;57.59;99560.88;5060554;28;20320;-68
2022/06/13 06:52:01;;;;;;;7.93;3.05;;;;;;;28.75;57.07;99568.47;5058869;28;20037;-67
2022/06/13 06:59:55;;;;;;;3.63;3.00;;;;;;;29.31;55.86;99571.50;5063249;28;20253;-68
2022/06/13 07:02:23;;;;;;;6.03;3.10;;;;;;;29.55;54.79;99566.91;5059198;28;20088;-68
2022/06/13 07:04:58;;;;;;;5.13;2.90;;;;;;;29.62;53.67;99569.28;5055740;28;20025;-69
2022/06/13 07:07:24;;;;;;;7.07;3.20;;;;;;;29.45;54.45;99563.47;5058626;28;20132;-68
2022/06/13 07:09:49;;;;;;;6.40;3.05;;;;;;;29.71;53.79;99569.44;5057493;28;20032;-68
2022/06/13 07:12:16;;;;;;;10.23;3.17;;;;;;;29.92;53.88;99565.34;5058282;28;20024;-68
2022/06/13 07:14:41;;;;;;;5.00;3.25;;;;;;;29.51;53.74;99573.22;5057653;28;20168;-68
2022/06/13 07:17:08;;;;;;;7.63;3.10;;;;;;;29.92;53.92;99570.81;5061313;28;20369;-68
2022/06/13 07:19:35;;;;;;;5.82;2.80;;;;;;;30.33;52.60;99578.47;5041743;28;20059;-68
2022/06/13 07:22:01;;;;;;;5.70;2.97;;;;;;;30.69;52.02;99573.28;5059046;28;20302;-68
2022/06/13 07:24:28;;;;;;;7.43;3.38;;;;;;;30.83;51.52;99568.66;5058807;28;20029;-68
2022/06/13 07:26:54;;;;;;;10.63;2.90;;;;;;;31.21;50.80;99571.28;5060214;28;20037;-67
2022/06/13 07:29:21;;;;;;;7.88;3.30;;;;;;;31.42;50.62;99578.03;5058318;28;20221;-68
2022/06/13 07:31:52;;;;;;;5.03;3.20;;;;;;;31.76;48.81;99569.41;5061414;28;20071;-66
2022/06/13 07:34:21;;;;;;;5.32;3.13;;;;;;;32.10;49.74;99566.19;5058247;28;20045;-66
2022/06/13 07:36:49;;;;;;;4.78;3.03;;;;;;;32.17;49.34;99565.78;5061214;28;20098;-66
2022/06/13 07:39:14;;;;;;;8.07;2.83;;;;;;;31.39;49.14;99563.03;5042292;28;20058;-65
2022/06/13 07:41:40;;;;;;;5.32;3.35;;;;;;;31.33;49.14;99566.16;5060604;28;20040;-66
2022/06/13 07:44:07;;;;;;;9.25;3.00;;;;;;;31.52;48.34;99563.31;5059272;28;20753;-66
2022/06/13 07:46:32;;;;;;;7.55;2.80;;;;;;;30.97;48.07;99569.50;5059538;28;20262;-68
2022/06/13 07:48:59;;;;;;;3.83;3.20;;;;;;;30.60;49.88;99566.88;5060670;28;20047;-68
2022/06/13 07:51:26;;;;;;;5.88;3.17;;;;;;;30.25;50.93;99570.94;5059193;28;20045;-68
2022/06/13 07:53:53;;;;;;;6.40;3.22;;;;;;;30.42;51.74;99555.66;5058421;28;20047;-68
2022/06/13 07:56:22;;;;;;;4.22;2.70;;;;;;;30.21;51.17;99562.53;5059435;28;20075;-68
2022/06/13 07:58:50;;;;;;;7.28;3.28;;;;;;;30.22;52.29;99564.16;5044106;28;20403;-68
2022/06/13 08:01:17;;;;;;;6.55;2.88;;;;;;;30.38;51.17;99567.47;5060422;28;20029;-68
2022/06/13 08:03:43;;;;;;;8.15;3.08;;;;;;;30.81;51.09;99562.69;5059481;28;20334;-68
2022/06/13 08:06:10;;;;;;;9.77;3.20;;;;;;;31.05;50.82;99557.88;5059420;28;20047;-68
2022/06/13 08:08:36;;;;;;;6.13;3.05;;;;;;;30.67;51.11;99565.38;5059744;28;20326;-68
2022/06/13 08:11:04;;;;;;;7.20;3.28;;;;;;;30.45;52.22;99570.63;5057399;28;20334;-68
2022/06/13 08:13:30;;;;;;;8.63;3.35;;;;;;;30.45;52.63;99562.44;5052687;28;20029;-68
2022/06/13 08:15:57;;;;;;;6.22;3.85;;;;;;;31.08;52.15;99564.66;5051149;28;20599;-68
2022/06/13 08:18:22;;;;;;;5.68;3.30;;;;;;;31.81;50.07;99554.81;5049714;28;20033;-65
2022/06/13 08:20:48;;;;;;;5.85;2.72;;;;;;;31.77;47.91;99560.09;5053287;28;20300;-66
2022/06/13 08:23:17;;;;;;;3.03;2.67;;;;;;;30.90;51.22;99562.81;5036187;28;20033;-66
2022/06/13 08:25:43;;;;;;;8.20;3.33;;;;;;;30.65;53.37;99569.53;5052099;28;20040;-66
2022/06/13 08:28:10;;;;;;;7.78;3.10;;;;;;;30.64;52.70;99565.97;5051315;28;20200;-68
2022/06/13 08:30:59;;;;;;;5.47;3.47;;;;;;;30.60;51.62;99553.22;5050730;28;20041;-68
2022/06/13 08:33:25;;;;;;;3.60;2.80;;;;;;;30.99;50.42;99563.72;5049111;28;20033;-68
2022/06/13 08:35:51;;;;;;;10.75;3.65;;;;;;;30.94;51.34;99561.09;5050896;28;20107;-68
2022/06/13 08:38:18;;;;;;;8.35;3.38;;;;;;;30.76;50.16;99560.03;5051922;28;20043;-68
2022/06/13 08:40:52;;;;;;;10.25;3.50;;;;;;;31.02;52.52;99561.22;5050893;28;20044;-66
2022/06/13 08:43:55;;;;;;;4.50;3.22;;;;;;;31.41;49.28;99562.72;5051120;28;20464;-66
2022/06/13 08:46:33;;;;;;;3.83;3.08;;;;;;;31.34;49.74;99560.38;5052376;28;20037;-66
2022/06/13 08:49:36;;;;;;;4.13;2.83;;;;;;;31.58;48.50;99562.91;5052912;28;20037;-65
2022/06/13 08:52:25;;;;;;;8.00;3.33;;;;;;;31.46;48.56;99559.88;5048860;28;20128;-65
2022/06/13 08:55:02;;;;;;;7.25;3.70;;;;;;;31.34;46.78;99571.34;5049594;28;20052;-65
2022/06/13 08:57:32;;;;;;;7.97;2.97;;;;;;;31.75;44.46;99565.06;5051511;28;20333;-66
2022/06/13 09:00:06;;;;;;;8.77;3.47;;;;;;;31.87;43.75;99573.56;5052331;28;20041;-65
2022/06/13 09:03:02;;;;;;;5.68;3.75;;;;;;;31.95;42.59;99575.56;5051100;28;20045;-66
2022/06/13 09:05:35;;;;;;;4.40;3.38;;;;;;;31.67;43.54;99571.22;5051554;28;20040;-66
2022/06/13 09:08:16;;;;;;;4.93;2.95;;;;;;;31.74;45.12;99569.72;5051973;28;20037;-66
2022/06/13 09:10:50;;;;;;;3.70;3.00;;;;;;;32.37;43.72;99562.63;5052091;28;20036;-66
2022/06/13 09:13:29;;;;;;;8.88;3.45;;;;;;;32.45;40.70;99561.88;5052355;28;20275;-66
2022/06/13 09:16:00;;;;;;;8.85;3.33;;;;;;;32.81;40.96;99566.50;5050964;28;21283;-66
2022/06/13 09:19:07;;;;;;;5.32;3.40;;;;;;;32.87;40.36;99571.53;5052172;28;20206;-65
2022/06/13 09:21:59;;;;;;;4.90;3.35;;;;;;;32.93;40.75;99577.69;5000330;28;20137;-66
2022/06/13 09:24:39;;;;;;;6.68;3.35;;;;;;;32.99;39.68;99574.50;5051876;28;20031;-65
2022/06/13 09:27:11;;;;;;;5.22;3.20;;;;;;;32.72;41.93;99568.34;5052554;28;20029;-67
2022/06/13 09:29:47;;;;;;;9.10;3.40;;;;;;;32.82;40.12;99574.41;5054575;28;20048;-66
2022/06/13 09:32:17;;;;;;;7.82;3.55;;;;;;;32.61;39.30;99557.63;5051261;28;20040;-65
2022/06/13 09:34:51;;;;;;;4.25;3.10;;;;;;;32.63;40.10;99573.78;5050965;28;20074;-65
2022/06/13 09:37:33;;;;;;;3.83;3.00;;;;;;;32.07;42.64;99575.03;5049295;28;20029;-66
2022/06/13 09:39:58;;;;;;;5.82;3.42;;;;;;;31.91;43.07;99576.50;5052355;28;20044;-66
2022/06/13 09:42:42;;;;;;;5.32;3.47;;;;;;;31.22;42.57;99564.75;5053986;28;20037;-66
2022/06/13 09:45:41;;;;;;;4.97;3.40;;;;;;;31.13;44.06;99548.97;5053511;28;20040;-66
2022/06/13 09:48:30;;;;;;;4.72;3.70;;;;;;;30.96;43.63;99567.88;5049297;28;20211;-68
2022/06/13 09:51:17;;;;;;;8.27;3.90;;;;;;;31.10;44.03;99570.63;5051837;28;20317;-66
2022/06/13 09:53:55;;;;;;;5.90;3.58;;;;;;;31.21;43.55;99561.19;5050320;28;20045;-65
2022/06/13 09:56:58;;;;;;;8.93;4.05;;;;;;;31.08;41.86;99565.47;5052311;28;20104;-66
2022/06/13 09:59:41;;;;;;;6.32;3.63;;;;;;;31.10;40.77;99559.69;5040284;28;20041;-66
2022/06/13 10:02:20;;;;;;;6.93;3.67;;;;;;;31.06;42.77;99561.41;5050102;28;20303;-65
2022/06/13 10:05:04;;;;;;;8.15;3.63;;;;;;;30.83;44.78;99563.19;5052872;28;20299;-68
2022/06/13 10:07:48;;;;;;;;;;;;;;;30.91;43.00;99559.78;5050309;28;20041;-68
2022/06/13 10:10:47;;;;;;;5.88;3.70;;;;;;;31.12;42.14;99566.50;5051819;28;19920;-66
2022/06/13 10:13:21;;;;;;;7.57;3.40;;;;;;;31.28;41.27;99566.25;5052134;28;20029;-66
2022/06/13 10:16:12;;;;;;;6.05;4.05;;;;;;;31.05;42.02;99565.25;5054941;28;20113;-66
2022/06/13 10:18:56;;;;;;;6.45;4.05;;;;;;;30.86;42.19;99556.31;5055927;28;20035;-68
2022/06/13 10:21:36;;;;;;;14.30;4.03;;;;;;;30.94;43.82;99558.34;5056244;28;20288;-68
2022/06/13 10:24:19;;;;;;;6.30;4.50;;;;;;;30.82;41.87;99556.09;5055635;28;20028;-68
2022/06/13 10:26:44;;;;;;;7.03;4.13;;;;;;;30.99;41.81;99541.84;5054812;28;20369;-68
2022/06/13 10:29:19;;;;;;;12.40;4.18;;;;;;;31.12;45.30;99536.41;5055063;28;20029;-68
2022/06/13 10:31:56;;;;;;;7.68;4.15;;;;;;;31.23;44.56;99537.09;5053239;28;20373;-67
2022/06/13 10:35:00;;;;;;;9.68;4.57;;;;;;;31.31;42.71;99541.84;5054730;28;20032;-67
2022/06/13 10:37:39;;;;;;;7.93;4.00;;;;;;;31.31;41.52;99538.31;5056722;28;20048;-68
2022/06/13 10:40:07;;;;;;;5.15;3.95;;;;;;;31.29;42.41;99526.84;5055718;28;20382;-68
2022/06/13 10:42:35;;;;;;;5.32;4.05;;;;;;;31.67;41.63;99528.25;5054694;28;20029;-68
2022/06/13 10:45:11;;;;;;;5.75;4.20;;;;;;;31.56;42.79;99528.75;5054885;28;20277;-67
2022/06/13 10:47:46;;;;;;;8.15;3.88;;;;;;;31.54;43.20;99533.72;5036371;28;20115;-68
2022/06/13 10:50:36;;;;;;;9.70;4.40;;;;;;;31.54;41.55;99525.53;5054503;28;20032;-68
2022/06/13 10:53:12;;;;;;;7.75;4.10;;;;;;;31.38;41.26;99523.09;5053275;28;20346;-68
2022/06/13 10:55:42;;;;;;;8.02;4.10;;;;;;;31.36;42.87;99527.25;5054529;28;20037;-68
2022/06/13 10:58:21;;;;;;;6.88;4.18;;;;;;;31.41;41.72;99521.69;5053019;28;20116;-68
2022/06/13 11:01:13;;;;;;;5.68;4.18;;;;;;;31.36;42.49;99524.53;5053889;28;20040;-68
2022/06/13 11:03:58;;;;;;;6.93;4.43;;;;;;;31.20;42.58;99507.56;5054256;28;20053;-67
2022/06/13 11:06:36;;;;;;;8.25;4.47;;;;;;;31.18;43.17;99503.53;5058393;28;20045;-68
2022/06/13 11:09:05;;;;;;;5.80;4.40;;;;;;;30.99;43.45;99512.59;5059845;28;20044;-68
2022/06/13 11:11:35;;;;;;;6.20;3.97;;;;;;;31.08;43.03;99508.03;5061099;28;20040;-68
2022/06/13 11:14:01;;;;;;;6.03;4.50;;;;;;;31.08;43.69;99510.78;5060215;28;20216;-68
2022/06/13 11:22:40;;;;;;;10.25;4.30;;;;;;;30.73;42.96;99498.59;5059984;28;20087;-68
2022/06/13 11:25:27;;;;;;;8.90;4.40;;;;;;;30.80;43.59;99495.47;5060104;28;20306;-68
2022/06/13 11:28:12;;;;;;;11.23;4.85;;;;;;;30.93;43.80;99497.41;5058618;28;20357;-68
2022/06/13 11:30:50;;;;;;;9.40;4.22;;;;;;;30.73;44.34;99486.84;5059658;28;20029;-68
2022/06/13 11:33:30;;;;;;;8.77;4.82;;;;;;;30.85;44.54;99484.44;5058391;28;20036;-68
2022/06/13 11:36:14;;;;;;;8.25;4.40;;;;;;;30.68;44.93;99474.09;5059942;28;20025;-68
2022/06/13 11:39:03;;;;;;;6.30;4.47;;;;;;;30.97;45.58;99481.19;5057938;28;20045;-68
2022/06/13 11:41:45;;;;;;;9.98;4.35;;;;;;;30.96;45.14;99474.91;5059773;28;20032;-68
2022/06/13 11:44:17;;;;;;;8.48;4.78;;;;;;;30.86;46.32;99477.03;5058694;28;20044;-67
2022/06/13 11:46:51;;;;;;;8.38;4.97;;;;;;;30.98;43.98;99474.63;5057668;28;20029;-67
2022/06/13 11:49:17;;;;;;;6.90;5.05;;;;;;;31.07;43.26;99475.53;5059905;28;20037;-67
2022/06/13 11:52:00;;;;;;;6.03;4.45;;;;;;;31.08;44.32;99461.56;5058368;28;20067;-67
2022/06/13 11:54:34;;;;;;;6.50;4.38;;;;;;;31.07;42.10;99462.66;5058749;28;20045;-68
2022/06/13 11:57:18;;;;;;;7.57;4.53;;;;;;;31.16;43.42;99454.59;5059053;28;20095;-67
2022/06/13 11:59:55;;;;;;;7.57;4.78;;;;;;;31.23;43.31;99455.03;5053698;28;20111;-67
2022/06/13 12:02:25;;;;;;;11.05;4.90;;;;;;;31.16;42.77;99456.50;5053740;28;20266;-67
2022/06/13 12:04:56;;;;;;;7.40;4.85;;;;;;;31.31;40.14;99450.75;5053349;28;20331;-68
2022/06/13 12:07:28;;;;;;;7.68;4.57;;;;;;;31.31;39.93;99454.31;5052726;28;20040;-68
2022/06/13 12:09:57;;;;;;;9.20;5.07;;;;;;;31.46;41.32;99453.16;5053506;28;20366;-68
2022/06/13 12:12:25;;;;;;;6.28;4.57;;;;;;;31.44;41.52;99455.41;5054362;28;20251;-68
2022/06/13 12:14:51;;;;;;;7.55;4.50;;;;;;;31.65;41.54;99450.28;5052641;28;20036;-68
2022/06/13 12:17:17;;;;;;;6.43;4.93;;;;;;;31.72;42.10;99446.03;5054315;28;20037;-68
2022/06/13 12:19:51;;;;;;;8.90;4.90;;;;;;;30.58;41.49;99449.63;5054735;28;20043;-67
2022/06/13 12:22:36;;;;;;;5.82;4.97;;;;;;;30.48;42.18;99438.91;5056815;28;20152;-67
2022/06/13 12:25:37;;;;;;;8.27;5.05;;;;;;;30.62;41.45;99438.94;5052242;28;20040;-68